createdAt,value
2022-12-31T00:02:17.390Z,2.88
2022-12-31T00:04:44.619Z,1.40
2022-12-31T00:07:11.523Z,1.85
2022-12-31T00:09:38.876Z,1.13
2022-12-31T00:12:06.025Z,2.13
2022-12-31T00:14:32.969Z,1.95
2022-12-31T00:16:59.983Z,2.67
2022-12-31T00:19:27.125Z,2.47
2022-12-31T00:21:54.075Z,2.35
2022-12-31T00:24:21.083Z,1.17
2022-12-31T00:26:48.066Z,2.38
2022-12-31T00:29:15.042Z,4.18
2022-12-31T00:31:42.073Z,1.98
2022-12-31T00:34:10.116Z,1.85
2022-12-31T00:36:39.155Z,3.50
2022-12-31T00:39:08.365Z,2.72
2022-12-31T00:41:35.779Z,1.35
2022-12-31T00:44:03.437Z,1.30
2022-12-31T00:46:31.775Z,4.53
2022-12-31T00:48:58.997Z,3.25
2022-12-31T00:51:28.898Z,3.05
2022-12-31T00:53:56.907Z,2.28
2022-12-31T00:56:27.261Z,4.43
2022-12-31T00:58:54.834Z,2.38
2022-12-31T01:01:23.070Z,5.85
2022-12-31T01:03:52.668Z,7.90
2022-12-31T01:06:20.558Z,3.97
2022-12-31T01:08:51.838Z,3.40
2022-12-31T01:11:19.269Z,3.97
2022-12-31T01:13:49.676Z,5.40
2022-12-31T01:16:17.938Z,5.28
2022-12-31T01:18:45.171Z,5.35
2022-12-31T01:21:13.517Z,6.13
2022-12-31T01:23:40.989Z,4.47
2022-12-31T01:26:10.862Z,3.25
2022-12-31T01:28:38.245Z,5.45
2022-12-31T01:31:15.107Z,6.85
2022-12-31T01:33:43.260Z,7.60
2022-12-31T01:36:25.224Z,3.38
2022-12-31T01:38:54.193Z,5.25
2022-12-31T01:41:24.515Z,4.25
2022-12-31T01:43:57.481Z,8.40
2022-12-31T01:46:32.682Z,10.83
2022-12-31T01:49:10.927Z,8.88
2022-12-31T01:51:39.673Z,8.70
2022-12-31T01:54:09.469Z,6.22
2022-12-31T01:56:38.776Z,4.90
2022-12-31T01:59:10.146Z,9.15
2022-12-31T02:01:38.520Z,14.63
2022-12-31T02:04:09.770Z,7.03
2022-12-31T02:07:09.063Z,6.82
2022-12-31T02:09:41.875Z,7.75
2022-12-31T02:12:10.443Z,6.93
2022-12-31T02:14:41.902Z,6.32
2022-12-31T02:17:37.878Z,11.27
2022-12-31T02:20:13.761Z,6.88
2022-12-31T02:23:21.645Z,10.38
2022-12-31T02:26:19.116Z,7.15
2022-12-31T02:29:04.761Z,9.32
2022-12-31T02:31:41.902Z,7.07
2022-12-31T02:34:19.388Z,8.35
2022-12-31T02:36:48.071Z,7.80
2022-12-31T02:39:15.223Z,8.32
2022-12-31T02:41:51.452Z,9.38
2022-12-31T02:44:24.452Z,6.55
2022-12-31T02:47:00.755Z,7.93
2022-12-31T02:49:56.947Z,13.52
2022-12-31T02:52:45.596Z,12.73
2022-12-31T02:55:41.350Z,6.65
2022-12-31T02:58:47.138Z,4.35
2022-12-31T03:01:39.323Z,7.00
2022-12-31T03:04:25.166Z,5.95
2022-12-31T03:06:53.434Z,5.38
2022-12-31T03:09:20.517Z,5.05
2022-12-31T03:12:06.205Z,7.72
2022-12-31T03:14:33.218Z,4.57
2022-12-31T03:17:00.188Z,8.75
2022-12-31T03:19:45.706Z,5.47
2022-12-31T03:22:28.834Z,5.35
2022-12-31T03:25:21.654Z,5.65
2022-12-31T03:27:49.822Z,4.25
2022-12-31T03:30:18.907Z,7.50
2022-12-31T03:32:47.154Z,4.82
2022-12-31T03:35:15.967Z,4.30
2022-12-31T03:37:43.648Z,6.25
2022-12-31T03:40:12.449Z,3.15
2022-12-31T03:42:39.769Z,3.65
2022-12-31T03:45:07.425Z,2.63
2022-12-31T03:47:34.605Z,3.95
2022-12-31T03:50:01.760Z,3.33
2022-12-31T03:52:28.775Z,3.53
2022-12-31T03:54:55.737Z,2.55
2022-12-31T03:57:23.766Z,5.03
2022-12-31T03:59:50.816Z,5.82
2022-12-31T04:02:20.000Z,5.40
2022-12-31T04:04:50.230Z,4.45
2022-12-31T04:07:17.531Z,3.72
2022-12-31T04:09:44.683Z,4.22
2022-12-31T04:12:11.652Z,5.13
2022-12-31T04:14:38.707Z,4.00
2022-12-31T04:17:05.704Z,3.95
2022-12-31T04:19:33.029Z,4.47
2022-12-31T04:21:59.990Z,4.90
2022-12-31T04:24:28.139Z,3.38
2022-12-31T04:26:55.075Z,4.85
2022-12-31T04:29:22.341Z,2.85
2022-12-31T04:31:49.396Z,4.15
2022-12-31T04:34:16.590Z,3.17
2022-12-31T04:36:43.496Z,5.07
2022-12-31T04:39:10.564Z,4.13
2022-12-31T04:41:37.508Z,5.03
2022-12-31T04:44:04.580Z,2.25
2022-12-31T04:46:33.213Z,2.85
2022-12-31T04:49:00.897Z,3.92
2022-12-31T04:51:29.328Z,3.08
2022-12-31T04:53:56.836Z,5.53
2022-12-31T04:56:24.414Z,5.97
2022-12-31T04:58:51.478Z,5.95
2022-12-31T05:01:18.588Z,4.93
2022-12-31T05:03:45.915Z,3.53
2022-12-31T05:06:18.476Z,5.15
2022-12-31T05:08:46.146Z,4.50
2022-12-31T05:11:13.571Z,5.63
2022-12-31T05:13:40.777Z,5.85
2022-12-31T05:16:08.509Z,6.47
2022-12-31T05:18:36.060Z,6.50
2022-12-31T05:21:03.648Z,4.15
2022-12-31T05:23:30.702Z,7.70
2022-12-31T05:25:59.673Z,5.35
2022-12-31T05:28:26.817Z,5.97
2022-12-31T05:30:53.814Z,8.27
2022-12-31T05:33:21.336Z,5.95
2022-12-31T05:35:48.588Z,8.05
2022-12-31T05:38:15.773Z,10.57
2022-12-31T05:40:42.709Z,7.00
2022-12-31T05:43:09.810Z,5.70
2022-12-31T05:45:37.210Z,6.45
2022-12-31T05:48:04.380Z,5.93
2022-12-31T05:50:31.489Z,8.57
2022-12-31T05:53:04.137Z,9.77
2022-12-31T05:55:31.226Z,7.25
2022-12-31T05:57:58.481Z,10.20
2022-12-31T06:00:25.501Z,4.22
2022-12-31T06:02:52.518Z,10.23
2022-12-31T06:05:25.719Z,5.50
2022-12-31T06:07:53.248Z,9.45
2022-12-31T06:10:20.191Z,8.75
2022-12-31T06:12:47.223Z,7.63
2022-12-31T06:15:14.205Z,5.50
2022-12-31T06:17:41.192Z,7.25
2022-12-31T06:20:12.696Z,8.30
2022-12-31T06:22:40.389Z,7.65
2022-12-31T06:25:07.653Z,7.60
2022-12-31T06:27:34.638Z,7.53
2022-12-31T06:30:01.650Z,7.35
2022-12-31T06:32:28.663Z,5.38
2022-12-31T06:34:55.573Z,6.28
2022-12-31T06:37:22.594Z,6.10
2022-12-31T06:39:49.514Z,9.48
2022-12-31T06:42:16.497Z,7.70
2022-12-31T06:44:43.451Z,7.68
2022-12-31T06:47:10.434Z,7.88
2022-12-31T06:49:37.357Z,6.25
2022-12-31T06:52:04.544Z,6.55
2022-12-31T06:54:31.589Z,7.13
2022-12-31T06:57:00.267Z,6.63
2022-12-31T06:59:29.528Z,5.40
2022-12-31T07:02:11.481Z,7.10
2022-12-31T07:04:47.664Z,7.07
2022-12-31T07:07:32.713Z,8.63
2022-12-31T07:10:15.085Z,6.90
2022-12-31T07:13:15.851Z,6.97
2022-12-31T07:16:30.575Z,5.35
2022-12-31T07:19:03.361Z,8.88
2022-12-31T07:21:37.100Z,6.85
2022-12-31T07:24:07.031Z,6.13
2022-12-31T07:26:56.777Z,8.48
2022-12-31T07:29:42.632Z,8.18
2022-12-31T07:32:34.171Z,6.75
2022-12-31T07:35:21.605Z,8.05
2022-12-31T07:37:51.568Z,6.53
2022-12-31T07:40:23.145Z,5.97
2022-12-31T07:42:52.873Z,9.75
2022-12-31T07:46:04.344Z,8.52
2022-12-31T07:48:31.528Z,6.88
2022-12-31T07:50:59.058Z,7.97
2022-12-31T07:53:27.001Z,7.45
2022-12-31T07:56:00.125Z,11.27
2022-12-31T07:58:48.316Z,8.68
2022-12-31T08:01:19.975Z,11.65
2022-12-31T08:03:53.137Z,11.15
2022-12-31T08:07:01.118Z,11.47
2022-12-31T08:09:31.021Z,14.05
2022-12-31T08:12:00.550Z,7.15
2022-12-31T08:14:29.014Z,8.52
2022-12-31T08:16:57.365Z,8.93
2022-12-31T08:19:32.466Z,9.20
2022-12-31T08:22:10.882Z,6.50
2022-12-31T08:25:07.728Z,8.65
2022-12-31T08:28:01.743Z,9.70
2022-12-31T08:30:44.690Z,12.07
2022-12-31T08:33:15.696Z,11.43
2022-12-31T08:36:04.075Z,7.63
2022-12-31T08:38:36.645Z,6.25
2022-12-31T08:41:31.788Z,7.45
2022-12-31T08:44:16.922Z,8.00
2022-12-31T08:46:45.010Z,9.25
2022-12-31T08:49:12.679Z,11.45
2022-12-31T08:51:40.067Z,8.40
2022-12-31T08:54:10.095Z,9.95
2022-12-31T08:56:58.621Z,10.93
2022-12-31T08:59:51.761Z,11.15
2022-12-31T09:02:30.503Z,10.95
2022-12-31T09:05:26.233Z,9.75
2022-12-31T09:07:56.196Z,9.40
2022-12-31T09:10:47.933Z,11.10
2022-12-31T09:13:42.632Z,13.07
2022-12-31T09:16:36.073Z,11.00
2022-12-31T09:19:03.128Z,9.48
2022-12-31T09:21:32.460Z,6.55
2022-12-31T09:24:03.133Z,12.45
2022-12-31T09:27:02.508Z,11.73
2022-12-31T09:29:52.162Z,12.70
2022-12-31T09:32:33.035Z,8.95
2022-12-31T09:35:07.518Z,12.13
2022-12-31T09:37:52.359Z,12.38
2022-12-31T09:40:48.014Z,11.68
2022-12-31T09:43:36.506Z,12.27
2022-12-31T09:46:28.380Z,9.13
2022-12-31T09:49:13.765Z,14.43
2022-12-31T09:52:02.064Z,7.95
2022-12-31T09:54:39.857Z,9.60
2022-12-31T09:57:39.752Z,7.25
2022-12-31T10:00:32.980Z,12.77
2022-12-31T10:03:39.993Z,9.52
2022-12-31T10:06:25.671Z,11.35
2022-12-31T10:09:21.430Z,16.02
2022-12-31T10:12:06.564Z,9.25
2022-12-31T10:14:48.636Z,12.93
2022-12-31T10:17:53.342Z,10.98
2022-12-31T10:20:31.042Z,16.48
2022-12-31T10:23:25.584Z,11.10
2022-12-31T10:28:38.248Z,11.95
2022-12-31T10:31:42.868Z,9.35
2022-12-31T10:34:14.290Z,11.45
2022-12-31T10:36:55.510Z,11.63
2022-12-31T10:39:53.080Z,16.98
2022-12-31T10:42:56.961Z,12.05
2022-12-31T10:45:26.924Z,13.13
2022-12-31T10:48:18.087Z,8.73
2022-12-31T10:51:10.914Z,8.45
2022-12-31T10:53:56.287Z,9.70
2022-12-31T10:57:01.191Z,13.00
2022-12-31T11:02:11.817Z,13.90
2022-12-31T11:04:57.796Z,12.68
2022-12-31T11:07:39.829Z,11.43
2022-12-31T11:10:31.857Z,12.32
2022-12-31T11:13:19.745Z,14.00
2022-12-31T11:16:10.261Z,16.65
2022-12-31T11:18:46.509Z,10.48
2022-12-31T11:21:28.721Z,14.90
2022-12-31T11:24:25.382Z,11.15
2022-12-31T11:27:38.977Z,13.85
2022-12-31T11:30:07.075Z,12.18
2022-12-31T11:32:52.401Z,13.77
2022-12-31T11:35:37.893Z,12.15
2022-12-31T11:38:32.062Z,13.25
2022-12-31T11:41:19.487Z,16.30
2022-12-31T11:43:46.869Z,15.18
2022-12-31T11:46:23.070Z,15.00
2022-12-31T11:49:01.860Z,16.48
2022-12-31T11:51:50.668Z,20.73
2022-12-31T11:54:36.783Z,20.50
2022-12-31T11:57:27.455Z,16.60
2022-12-31T12:00:02.069Z,13.95
2022-12-31T12:02:44.053Z,15.25
2022-12-31T12:05:16.793Z,15.02
2022-12-31T12:07:44.146Z,15.50
2022-12-31T12:10:33.786Z,14.18
2022-12-31T12:13:19.395Z,12.20
2022-12-31T12:15:50.487Z,17.83
2022-12-31T12:18:48.303Z,16.48
2022-12-31T12:21:20.070Z,14.25
2022-12-31T12:24:17.450Z,16.75
2022-12-31T12:26:45.576Z,14.05
2022-12-31T12:29:23.252Z,15.25
2022-12-31T12:32:16.270Z,14.45
2022-12-31T12:34:49.321Z,13.85
2022-12-31T12:37:37.446Z,15.70
2022-12-31T12:40:22.171Z,13.85
2022-12-31T12:42:51.216Z,13.88
2022-12-31T12:45:23.281Z,17.20
2022-12-31T12:47:56.242Z,13.32
2022-12-31T12:50:32.473Z,14.40
2022-12-31T12:53:35.149Z,13.57
2022-12-31T12:56:25.273Z,13.43
2022-12-31T12:59:19.622Z,15.32
2022-12-31T13:01:52.658Z,12.23
2022-12-31T13:04:35.013Z,16.38
2022-12-31T13:07:21.097Z,14.45
2022-12-31T13:09:48.065Z,16.58
2022-12-31T13:12:25.659Z,18.55
2022-12-31T13:15:12.097Z,9.60
2022-12-31T13:18:02.637Z,15.52
2022-12-31T13:20:41.285Z,14.63
2022-12-31T13:23:26.568Z,16.00
2022-12-31T13:26:08.696Z,12.75
2022-12-31T13:28:39.082Z,11.95
2022-12-31T13:31:12.652Z,12.68
2022-12-31T13:33:48.209Z,17.05
2022-12-31T13:36:19.285Z,11.48
2022-12-31T13:38:51.352Z,12.27
2022-12-31T13:41:31.440Z,16.40
2022-12-31T13:44:23.768Z,12.45
2022-12-31T13:47:10.708Z,14.50
2022-12-31T13:49:40.730Z,13.75
2022-12-31T13:52:27.541Z,11.02
2022-12-31T13:55:23.836Z,11.05
2022-12-31T13:58:12.973Z,15.43
2022-12-31T14:00:46.527Z,15.98
2022-12-31T14:03:35.860Z,11.90
2022-12-31T14:06:18.248Z,13.63
2022-12-31T14:08:46.030Z,16.38
2022-12-31T14:11:25.067Z,11.38
2022-12-31T14:14:10.049Z,10.60
2022-12-31T14:16:42.908Z,11.85
2022-12-31T14:19:44.237Z,11.52
2022-12-31T14:22:17.103Z,13.25
2022-12-31T14:24:51.195Z,10.93
2022-12-31T14:27:36.869Z,10.07
2022-12-31T14:30:23.485Z,12.88
2022-12-31T14:32:59.757Z,10.27
2022-12-31T14:35:32.777Z,16.88
2022-12-31T14:38:19.733Z,16.87
2022-12-31T14:40:55.183Z,12.50
2022-12-31T14:43:27.935Z,12.20
2022-12-31T14:46:13.829Z,11.23
2022-12-31T14:49:01.045Z,8.05
2022-12-31T14:51:31.080Z,8.50
2022-12-31T14:53:59.074Z,11.57
2022-12-31T14:56:43.062Z,7.60
2022-12-31T14:59:26.703Z,8.63
2022-12-31T15:01:55.193Z,11.95
2022-12-31T15:04:45.031Z,8.40
2022-12-31T15:07:27.649Z,14.10
2022-12-31T15:10:06.582Z,11.77
2022-12-31T15:12:49.281Z,11.43
2022-12-31T15:15:51.416Z,9.95
2022-12-31T15:18:37.239Z,9.10
2022-12-31T15:21:21.031Z,16.15
2022-12-31T15:23:49.867Z,11.00
2022-12-31T15:26:27.854Z,13.65
2022-12-31T15:29:08.170Z,12.15
2022-12-31T15:31:36.513Z,13.27
2022-12-31T15:34:05.165Z,16.65
2022-12-31T15:36:39.008Z,9.95
2022-12-31T15:42:18.849Z,8.77
2022-12-31T15:44:56.695Z,12.75
2022-12-31T15:47:29.722Z,12.13
2022-12-31T15:50:18.847Z,10.73
2022-12-31T15:53:02.745Z,13.43
2022-12-31T15:55:38.725Z,9.18
2022-12-31T15:58:11.236Z,12.45
2022-12-31T16:01:21.844Z,13.50
2022-12-31T16:04:05.787Z,13.45
2022-12-31T16:06:39.188Z,12.90
2022-12-31T16:09:18.441Z,11.00
2022-12-31T16:11:45.701Z,15.13
2022-12-31T16:14:25.924Z,9.50
2022-12-31T16:16:57.929Z,15.13
2022-12-31T16:19:35.567Z,12.48
2022-12-31T16:22:09.177Z,8.57
2022-12-31T16:24:48.996Z,15.02
2022-12-31T16:27:25.335Z,13.80
2022-12-31T16:30:07.211Z,13.52
2022-12-31T16:32:38.994Z,13.75
2022-12-31T16:35:24.809Z,19.75
2022-12-31T16:38:17.130Z,8.68
2022-12-31T16:41:07.001Z,11.60
2022-12-31T16:43:38.877Z,15.52
2022-12-31T16:46:20.299Z,8.80
2022-12-31T16:48:59.928Z,14.02
2022-12-31T16:51:31.047Z,11.55
2022-12-31T16:53:59.014Z,17.08
2022-12-31T16:56:44.839Z,13.30
2022-12-31T16:59:44.311Z,14.93
2022-12-31T17:02:28.416Z,12.82
2022-12-31T17:04:56.560Z,15.55
2022-12-31T17:07:31.347Z,15.18
2022-12-31T17:10:15.767Z,10.70
2022-12-31T17:13:25.636Z,10.25
2022-12-31T17:15:42.993Z,11.27
2022-12-31T17:18:19.547Z,15.07
2022-12-31T17:20:47.551Z,18.05
2022-12-31T17:23:25.066Z,16.88
2022-12-31T17:26:00.118Z,20.05
2022-12-31T17:28:39.674Z,10.80
2022-12-31T17:31:34.157Z,15.07
2022-12-31T17:34:21.352Z,12.75
2022-12-31T17:36:57.041Z,14.32
2022-12-31T17:39:25.393Z,14.77
2022-12-31T17:41:55.929Z,11.80
2022-12-31T17:44:26.917Z,13.43
2022-12-31T17:46:54.241Z,15.73
2022-12-31T17:49:29.745Z,10.60
2022-12-31T17:51:56.780Z,13.70
2022-12-31T17:54:23.754Z,8.82
2022-12-31T17:56:52.556Z,14.07
2022-12-31T17:59:25.208Z,14.52
2022-12-31T18:01:52.492Z,12.70
2022-12-31T18:04:20.864Z,9.75
2022-12-31T18:06:47.937Z,11.55
2022-12-31T18:09:16.421Z,9.15
2022-12-31T18:11:43.839Z,10.52
2022-12-31T18:14:14.787Z,13.57
2022-12-31T18:16:42.174Z,12.85
2022-12-31T18:19:37.975Z,12.68
2022-12-31T18:22:02.701Z,14.30
2022-12-31T18:24:31.025Z,12.60
2022-12-31T18:26:58.062Z,8.60
2022-12-31T18:29:25.036Z,13.48
2022-12-31T18:31:52.403Z,10.98
2022-12-31T18:34:19.442Z,10.50
2022-12-31T18:36:46.777Z,14.57
2022-12-31T18:39:13.777Z,14.27
2022-12-31T18:41:49.648Z,13.60
2022-12-31T18:44:17.853Z,16.92
2022-12-31T18:46:44.833Z,11.70
2022-12-31T18:49:11.848Z,14.00
2022-12-31T18:51:38.789Z,10.23
2022-12-31T18:54:10.467Z,10.40
2022-12-31T18:56:41.812Z,8.60
2022-12-31T18:59:13.585Z,12.93
2022-12-31T19:01:41.360Z,11.85
2022-12-31T19:04:13.435Z,11.55
2022-12-31T19:06:40.603Z,12.52
2022-12-31T19:09:23.743Z,11.27
2022-12-31T19:11:54.635Z,12.18
2022-12-31T19:14:24.324Z,9.45
2022-12-31T19:16:52.411Z,13.95
2022-12-31T19:19:19.749Z,11.05
2022-12-31T19:21:47.506Z,11.70
2022-12-31T19:24:21.209Z,10.07
2022-12-31T19:26:51.099Z,11.73
2022-12-31T19:29:24.932Z,14.38
2022-12-31T19:31:52.079Z,9.70
2022-12-31T19:34:19.109Z,16.33
2022-12-31T19:36:46.333Z,13.70
2022-12-31T19:39:17.206Z,16.30
2022-12-31T19:41:45.152Z,11.25
2022-12-31T19:44:17.134Z,12.57
2022-12-31T19:46:44.491Z,11.73
2022-12-31T19:49:13.395Z,14.82
2022-12-31T19:51:41.250Z,12.18
2022-12-31T19:54:08.788Z,14.40
2022-12-31T19:56:36.007Z,11.95
2022-12-31T19:59:07.731Z,10.85
2022-12-31T20:01:34.870Z,14.35
2022-12-31T20:04:01.911Z,8.10
2022-12-31T20:06:29.032Z,13.98
2022-12-31T20:08:56.061Z,12.18
2022-12-31T20:11:24.446Z,11.30
2022-12-31T20:13:53.705Z,10.68
2022-12-31T20:16:23.485Z,8.60
2022-12-31T20:18:50.821Z,16.95
2022-12-31T20:21:23.827Z,14.95
2022-12-31T20:23:52.434Z,8.88
2022-12-31T20:26:20.510Z,13.18
2022-12-31T20:28:47.651Z,10.75
2022-12-31T20:31:17.760Z,17.70
2022-12-31T20:33:45.148Z,20.95
2022-12-31T20:36:14.667Z,9.77
2022-12-31T20:38:42.131Z,11.45
2022-12-31T20:41:14.642Z,11.23
2022-12-31T20:43:42.302Z,16.63
2022-12-31T20:46:15.729Z,12.25
2022-12-31T20:51:10.839Z,18.90
2022-12-31T20:53:37.879Z,11.45
2022-12-31T20:56:09.661Z,13.55
2022-12-31T20:58:36.939Z,13.88
2022-12-31T21:01:06.831Z,8.80
2022-12-31T21:04:04.281Z,11.80
2022-12-31T21:06:24.499Z,16.38
2022-12-31T21:08:51.569Z,11.40
2022-12-31T21:11:37.034Z,15.93
2022-12-31T21:14:04.110Z,12.70
2022-12-31T21:16:31.853Z,13.63
2022-12-31T21:18:58.874Z,10.45
2022-12-31T21:21:25.885Z,18.02
2022-12-31T21:23:53.192Z,14.40
2022-12-31T21:26:20.220Z,12.50
2022-12-31T21:28:47.199Z,10.35
2022-12-31T21:31:15.205Z,8.00
2022-12-31T21:33:46.747Z,12.18
2022-12-31T21:36:14.275Z,8.80
2022-12-31T21:38:41.607Z,14.07
2022-12-31T21:41:33.451Z,14.07
2022-12-31T21:44:01.804Z,9.23
2022-12-31T21:46:29.161Z,13.63
2022-12-31T21:48:58.049Z,11.98
2022-12-31T21:51:25.563Z,8.98
2022-12-31T21:53:52.599Z,11.45
2022-12-31T21:56:21.366Z,8.30
2022-12-31T21:59:16.459Z,14.27
2022-12-31T22:02:02.491Z,9.88
2022-12-31T22:05:17.542Z,16.42
2022-12-31T22:07:16.664Z,13.48
2022-12-31T22:09:43.720Z,9.88
2022-12-31T22:12:10.717Z,8.65
2022-12-31T22:14:37.671Z,7.82
2022-12-31T22:17:04.708Z,10.23
2022-12-31T22:19:33.620Z,11.10
2022-12-31T22:22:10.786Z,9.15
2022-12-31T22:24:37.697Z,8.63
2022-12-31T22:27:28.727Z,12.35
2022-12-31T22:29:51.808Z,13.80
2022-12-31T22:32:18.803Z,10.07
2022-12-31T22:34:45.816Z,14.13
2022-12-31T22:37:35.678Z,17.20
2022-12-31T22:39:59.850Z,7.78
2022-12-31T22:42:26.824Z,8.70
2022-12-31T22:44:53.841Z,8.82
2022-12-31T22:47:20.793Z,13.52
2022-12-31T22:49:47.808Z,12.52
2022-12-31T22:52:14.730Z,12.02
2022-12-31T22:54:41.762Z,8.20
2022-12-31T22:57:08.753Z,6.68
2022-12-31T22:59:35.785Z,7.72
2022-12-31T23:02:02.740Z,10.55
2022-12-31T23:04:29.918Z,13.48
2022-12-31T23:06:56.969Z,7.70
2022-12-31T23:09:42.642Z,11.98
2022-12-31T23:12:10.512Z,11.27
2022-12-31T23:14:56.334Z,11.60
2022-12-31T23:17:44.328Z,14.68
2022-12-31T23:20:32.849Z,17.10
2022-12-31T23:23:11.868Z,10.98
2022-12-31T23:25:43.285Z,14.38
2022-12-31T23:28:13.621Z,11.48
2022-12-31T23:30:42.078Z,10.23
2022-12-31T23:33:17.550Z,12.70
2022-12-31T23:35:44.935Z,8.55
2022-12-31T23:38:12.571Z,9.82
2022-12-31T23:40:39.598Z,13.20
2022-12-31T23:43:08.372Z,12.40
2022-12-31T23:45:36.136Z,12.10
2022-12-31T23:48:03.508Z,9.75
2022-12-31T23:50:30.510Z,13.10
2022-12-31T23:52:57.422Z,10.43
2022-12-31T23:55:24.482Z,9.30
2022-12-31T23:57:51.423Z,9.30
